createdAt,value
2019-04-18T00:01:03.584Z,0.00
2019-04-18T00:01:58.875Z,0.00
2019-04-18T00:02:58.463Z,0.00
2019-04-18T00:04:01.751Z,0.00
2019-04-18T00:04:58.364Z,0.00
2019-04-18T00:05:58.324Z,0.00
2019-04-18T00:06:59.184Z,0.00
2019-04-18T00:07:58.277Z,0.00
2019-04-18T00:08:58.273Z,0.00
2019-04-18T00:09:58.434Z,0.00
2019-04-18T00:10:58.147Z,0.00
2019-04-18T00:11:58.094Z,0.00
2019-04-18T00:12:58.164Z,0.00
2019-04-18T00:14:03.287Z,0.00
2019-04-18T00:14:58.244Z,0.00
2019-04-18T00:15:57.968Z,0.00
2019-04-18T00:16:59.520Z,0.00
2019-04-18T00:18:04.240Z,0.00
2019-04-18T00:18:57.793Z,0.00
2019-04-18T00:19:57.782Z,0.00
2019-04-18T00:20:57.718Z,0.00
2019-04-18T00:21:57.721Z,0.00
2019-04-18T00:22:58.227Z,0.00
2019-04-18T00:23:59.811Z,0.00
2019-04-18T00:24:57.557Z,0.00
2019-04-18T00:25:57.562Z,0.00
2019-04-18T00:26:57.499Z,0.00
2019-04-18T00:27:57.693Z,0.00
2019-04-18T00:28:57.527Z,0.00
2019-04-18T00:29:59.625Z,0.00
2019-04-18T00:30:59.790Z,0.00
2019-04-18T00:31:57.660Z,0.00
2019-04-18T00:32:57.272Z,0.00
2019-04-18T00:34:11.988Z,0.00
2019-04-18T00:34:57.381Z,0.00
2019-04-18T00:35:57.123Z,0.00
2019-04-18T00:36:57.465Z,0.00
2019-04-18T00:37:58.562Z,0.00
2019-04-18T00:39:00.288Z,0.00
2019-04-18T00:39:56.935Z,0.00
2019-04-18T00:40:57.490Z,0.00
2019-04-18T00:41:56.884Z,0.00
2019-04-18T00:42:56.924Z,0.00
2019-04-18T00:44:01.165Z,0.00
2019-04-18T00:44:57.021Z,0.00
2019-04-18T00:45:57.695Z,0.00
2019-04-18T00:46:56.899Z,0.00
2019-04-18T00:47:56.672Z,0.00
2019-04-18T00:48:59.659Z,0.00
2019-04-18T00:49:56.929Z,0.00
2019-04-18T00:50:56.949Z,0.00
2019-04-18T00:51:56.943Z,0.00
2019-04-18T00:52:57.253Z,0.00
2019-04-18T00:53:57.225Z,0.00
2019-04-18T00:54:59.010Z,0.00
2019-04-18T00:56:02.379Z,0.00
2019-04-18T00:56:56.300Z,0.00
2019-04-18T00:57:56.260Z,0.00
2019-04-18T00:58:56.183Z,0.00
2019-04-18T00:59:59.117Z,0.00
2019-04-18T01:00:56.186Z,0.00
2019-04-18T01:01:56.082Z,0.00
2019-04-18T01:02:56.016Z,0.00
2019-04-18T01:03:57.789Z,0.00
2019-04-18T01:04:56.699Z,0.00
2019-04-18T01:05:55.884Z,0.00
2019-04-18T01:06:55.889Z,0.00
2019-04-18T01:07:56.700Z,0.00
2019-04-18T01:08:55.772Z,0.00
2019-04-18T01:09:55.732Z,0.00
2019-04-18T01:10:55.764Z,0.00
2019-04-18T01:11:58.906Z,0.00
2019-04-18T01:12:55.626Z,0.00
2019-04-18T01:13:55.552Z,0.00
2019-04-18T01:14:55.537Z,0.00
2019-04-18T01:15:56.385Z,0.00
2019-04-18T01:16:58.606Z,0.00
2019-04-18T01:17:55.417Z,0.00
2019-04-18T01:18:55.374Z,0.00
2019-04-18T01:19:55.760Z,0.00
2019-04-18T01:20:58.560Z,0.00
2019-04-18T01:21:56.208Z,0.00
2019-04-18T01:22:55.220Z,0.00
2019-04-18T01:23:55.538Z,0.00
2019-04-18T01:24:57.265Z,0.00
2019-04-18T01:25:55.074Z,0.00
2019-04-18T01:26:55.085Z,0.00
2019-04-18T01:27:54.999Z,0.00
2019-04-18T01:28:54.941Z,0.00
2019-04-18T01:29:54.919Z,0.00
2019-04-18T01:30:54.896Z,0.00
2019-04-18T01:31:55.714Z,0.00
2019-04-18T01:32:59.965Z,0.00
2019-04-18T01:33:54.752Z,0.00
2019-04-18T01:34:54.708Z,0.00
2019-04-18T01:35:55.846Z,0.00
2019-04-18T01:36:57.400Z,0.00
2019-04-18T01:37:54.635Z,0.00
2019-04-18T01:38:54.553Z,0.00
2019-04-18T01:39:54.498Z,0.00
2019-04-18T01:40:54.467Z,0.00
2019-04-18T01:41:56.528Z,0.00
2019-04-18T01:42:54.371Z,0.00
2019-04-18T01:43:54.381Z,0.00
2019-04-18T01:44:54.317Z,0.00
2019-04-18T01:45:54.260Z,0.00
2019-04-18T01:46:56.341Z,0.00
2019-04-18T01:47:57.292Z,0.00
2019-04-18T01:48:54.145Z,0.00
2019-04-18T01:49:54.112Z,0.00
2019-04-18T01:50:54.064Z,0.00
2019-04-18T01:51:54.464Z,0.00
2019-04-18T01:52:56.038Z,0.00
2019-04-18T01:53:53.956Z,0.00
2019-04-18T01:54:53.876Z,0.00
2019-04-18T01:55:53.839Z,0.00
2019-04-18T01:56:55.979Z,0.00
2019-04-18T01:57:57.017Z,0.00
2019-04-18T01:58:53.752Z,0.00
2019-04-18T01:59:54.213Z,0.00
2019-04-18T02:00:53.652Z,0.00
2019-04-18T02:01:54.456Z,0.00
2019-04-18T02:02:55.965Z,0.00
2019-04-18T02:03:53.546Z,0.00
2019-04-18T02:05:02.043Z,0.00
2019-04-18T02:05:53.454Z,0.00
2019-04-18T02:06:53.396Z,0.00
2019-04-18T02:07:53.402Z,0.00
2019-04-18T02:08:54.215Z,0.00
2019-04-18T02:09:53.866Z,0.00
2019-04-18T02:10:53.243Z,0.00
2019-04-18T02:11:53.207Z,0.00
2019-04-18T02:12:53.141Z,0.00
2019-04-18T02:13:53.333Z,0.00
2019-04-18T02:14:58.280Z,0.00
2019-04-18T02:15:53.022Z,0.00
2019-04-18T02:16:53.016Z,0.00
2019-04-18T02:17:52.939Z,0.00
2019-04-18T02:18:54.440Z,0.00
2019-04-18T02:19:53.716Z,0.00
2019-04-18T02:20:52.830Z,0.00
2019-04-18T02:21:52.781Z,0.00
2019-04-18T02:22:52.763Z,0.00
2019-04-18T02:23:56.208Z,0.00
2019-04-18T02:24:52.652Z,0.00
2019-04-18T02:25:52.627Z,0.00
2019-04-18T02:26:52.568Z,0.00
2019-04-18T02:27:54.965Z,0.00
2019-04-18T02:28:52.466Z,0.00
2019-04-18T02:29:52.490Z,0.00
2019-04-18T02:30:57.032Z,0.00
2019-04-18T02:31:52.356Z,0.00
2019-04-18T02:32:52.300Z,0.00
2019-04-18T02:33:52.266Z,0.00
2019-04-18T02:34:53.148Z,0.00
2019-04-18T02:35:52.174Z,0.00
2019-04-18T02:36:52.142Z,0.00
2019-04-18T02:37:52.189Z,0.00
2019-04-18T02:38:55.869Z,0.00
2019-04-18T02:39:52.046Z,0.00
2019-04-18T02:40:52.003Z,0.00
2019-04-18T02:41:51.942Z,0.00
2019-04-18T02:42:51.895Z,0.00
2019-04-18T02:43:54.597Z,0.00
2019-04-18T02:44:51.808Z,0.00
2019-04-18T02:45:52.720Z,0.00
2019-04-18T02:46:51.737Z,0.00
2019-04-18T02:47:52.735Z,0.00
2019-04-18T02:48:54.914Z,0.00
2019-04-18T02:49:51.754Z,0.00
2019-04-18T02:50:51.579Z,0.00
2019-04-18T02:51:52.016Z,0.00
2019-04-18T02:52:54.778Z,0.00
2019-04-18T02:53:51.478Z,0.00
2019-04-18T02:54:51.435Z,0.00
2019-04-18T02:55:52.173Z,0.00
2019-04-18T02:56:54.173Z,0.00
2019-04-18T02:57:51.359Z,0.00
2019-04-18T02:58:51.292Z,0.00
2019-04-18T02:59:51.237Z,0.00
2019-04-18T03:00:52.637Z,0.00
2019-04-18T03:01:51.097Z,0.00
2019-04-18T03:02:51.075Z,0.00
2019-04-18T03:03:51.065Z,0.00
2019-04-18T03:04:52.716Z,0.00
2019-04-18T03:05:50.944Z,0.00
2019-04-18T03:06:50.887Z,0.00
2019-04-18T03:07:51.839Z,0.00
2019-04-18T03:08:50.828Z,0.00
2019-04-18T03:09:51.723Z,0.00
2019-04-18T03:10:50.772Z,0.00
2019-04-18T03:11:51.918Z,0.00
2019-04-18T03:12:50.681Z,0.00
2019-04-18T03:13:50.600Z,0.00
2019-04-18T03:14:50.574Z,0.00
2019-04-18T03:15:51.815Z,0.00
2019-04-18T03:16:50.740Z,0.00
2019-04-18T03:17:50.499Z,0.00
2019-04-18T03:18:50.429Z,0.00
2019-04-18T03:19:50.394Z,0.00
2019-04-18T03:20:52.184Z,0.00
2019-04-18T03:21:50.354Z,0.00
2019-04-18T03:22:50.228Z,0.00
2019-04-18T03:23:50.221Z,0.00
2019-04-18T03:24:50.566Z,0.00
2019-04-18T03:25:51.925Z,0.00
2019-04-18T03:26:50.103Z,0.00
2019-04-18T03:27:50.038Z,0.00
2019-04-18T03:28:49.997Z,0.00
2019-04-18T03:29:52.702Z,0.00
2019-04-18T03:30:49.932Z,0.00
2019-04-18T03:31:58.069Z,0.00
2019-04-18T03:32:49.825Z,0.00
2019-04-18T03:33:49.798Z,0.00
2019-04-18T03:34:49.763Z,0.00
2019-04-18T03:35:53.252Z,0.00
2019-04-18T03:36:49.696Z,0.00
2019-04-18T03:37:49.612Z,0.00
2019-04-18T03:38:49.643Z,0.00
2019-04-18T03:39:51.185Z,0.00
2019-04-18T03:40:49.519Z,0.00
2019-04-18T03:41:49.457Z,0.00
2019-04-18T03:42:49.574Z,0.00
2019-04-18T03:43:49.386Z,0.00
2019-04-18T03:44:49.358Z,0.00
2019-04-18T03:45:55.130Z,0.00
2019-04-18T03:46:49.279Z,0.00
2019-04-18T03:47:51.160Z,0.00
2019-04-18T03:48:49.189Z,0.00
2019-04-18T03:49:49.114Z,0.00
2019-04-18T03:50:50.985Z,0.00
2019-04-18T03:51:49.109Z,0.00
2019-04-18T03:52:48.995Z,0.00
2019-04-18T03:53:48.994Z,0.00
2019-04-18T03:54:48.951Z,0.00
2019-04-18T03:55:55.295Z,0.00
2019-04-18T03:56:48.825Z,0.00
2019-04-18T03:57:48.848Z,0.00
2019-04-18T03:58:48.756Z,0.00
2019-04-18T03:59:51.510Z,0.00
2019-04-18T04:00:48.705Z,5.63
2019-04-18T04:01:48.610Z,5.63
2019-04-18T04:02:49.239Z,5.63
2019-04-18T04:03:48.556Z,5.63
2019-04-18T04:04:48.545Z,5.63
2019-04-18T04:06:03.436Z,11.25
2019-04-18T04:06:49.077Z,11.25
2019-04-18T04:07:48.402Z,11.25
2019-04-18T04:08:49.238Z,11.25
2019-04-18T04:09:48.306Z,16.88
2019-04-18T04:10:48.399Z,16.88
2019-04-18T04:11:48.221Z,16.88
2019-04-18T04:12:48.179Z,22.50
2019-04-18T04:13:48.171Z,22.50
2019-04-18T04:14:48.089Z,22.50
2019-04-18T04:15:50.436Z,28.13
2019-04-18T04:16:48.020Z,28.13
2019-04-18T04:17:47.974Z,33.75
2019-04-18T04:18:48.153Z,33.75
2019-04-18T04:19:53.526Z,39.38
2019-04-18T04:20:48.739Z,39.38
2019-04-18T04:21:47.780Z,45.00
2019-04-18T04:22:47.751Z,45.00
2019-04-18T04:23:47.737Z,50.63
2019-04-18T04:24:47.693Z,50.63
2019-04-18T04:25:47.646Z,56.25
2019-04-18T04:26:47.595Z,61.88
2019-04-18T04:27:47.545Z,61.88
2019-04-18T04:28:47.560Z,67.50
2019-04-18T04:29:47.456Z,73.13
2019-04-18T04:30:47.677Z,73.13
2019-04-18T04:31:47.379Z,78.75
2019-04-18T04:32:47.390Z,84.38
2019-04-18T04:33:47.304Z,84.38
2019-04-18T04:34:47.257Z,90.00
2019-04-18T04:35:50.799Z,95.63
2019-04-18T04:36:47.302Z,101.25
2019-04-18T04:37:47.183Z,101.25
2019-04-18T04:38:51.413Z,106.88
2019-04-18T04:39:47.747Z,112.50
2019-04-18T04:40:47.084Z,118.13
2019-04-18T04:41:46.943Z,118.13
2019-04-18T04:42:48.687Z,123.75
2019-04-18T04:43:46.869Z,123.75
2019-04-18T04:44:46.822Z,135.00
2019-04-18T04:45:46.784Z,146.25
2019-04-18T04:46:46.735Z,146.25
2019-04-18T04:47:49.222Z,146.25
2019-04-18T04:48:46.656Z,157.50
2019-04-18T04:49:46.592Z,157.50
2019-04-18T04:50:46.630Z,168.75
2019-04-18T04:51:52.173Z,180.00
2019-04-18T04:52:47.245Z,185.63
2019-04-18T04:53:46.473Z,185.63
2019-04-18T04:54:46.402Z,191.25
2019-04-18T04:55:46.371Z,196.88
2019-04-18T04:56:48.048Z,208.13
2019-04-18T04:57:46.327Z,208.13
2019-04-18T04:58:46.371Z,213.75
2019-04-18T04:59:49.528Z,213.75
2019-04-18T05:00:46.161Z,225.00
2019-04-18T05:01:46.123Z,230.63
2019-04-18T05:02:46.073Z,241.88
2019-04-18T05:03:50.636Z,286.88
2019-04-18T05:04:45.980Z,275.63
2019-04-18T05:05:45.955Z,270.00
2019-04-18T05:06:45.921Z,286.88
2019-04-18T05:07:51.188Z,286.88
2019-04-18T05:08:45.840Z,270.00
2019-04-18T05:09:45.809Z,253.13
2019-04-18T05:10:47.938Z,253.13
2019-04-18T05:11:45.739Z,275.63
2019-04-18T05:12:45.659Z,303.75
2019-04-18T05:13:45.655Z,315.00
2019-04-18T05:14:45.566Z,315.00
2019-04-18T05:15:45.550Z,331.88
2019-04-18T05:16:45.514Z,320.63
2019-04-18T05:17:45.474Z,360.00
2019-04-18T05:18:45.427Z,399.38
2019-04-18T05:19:46.254Z,331.88
2019-04-18T05:20:46.251Z,298.13
2019-04-18T05:21:45.293Z,292.50
2019-04-18T05:22:54.404Z,292.50
2019-04-18T05:23:46.719Z,298.13
2019-04-18T05:24:45.190Z,303.75
2019-04-18T05:25:45.124Z,315.00
2019-04-18T05:26:45.135Z,315.00
2019-04-18T05:27:45.060Z,315.00
2019-04-18T05:28:45.136Z,315.00
2019-04-18T05:29:46.582Z,320.63
2019-04-18T05:30:45.091Z,320.63
2019-04-18T05:31:44.921Z,326.25
2019-04-18T05:32:44.870Z,326.25
2019-04-18T05:33:44.803Z,337.50
2019-04-18T05:34:47.116Z,337.50
2019-04-18T05:35:44.748Z,337.50
2019-04-18T05:36:55.934Z,343.13
2019-04-18T05:37:45.062Z,348.75
2019-04-18T05:38:44.646Z,354.38
2019-04-18T05:39:44.584Z,360.00
2019-04-18T05:40:44.532Z,360.00
2019-04-18T05:41:46.293Z,365.63
2019-04-18T05:42:44.454Z,382.50
2019-04-18T05:43:44.401Z,405.00
2019-04-18T05:44:44.365Z,399.38
2019-04-18T05:45:46.225Z,382.50
2019-04-18T05:46:44.318Z,382.50
2019-04-18T05:47:44.255Z,376.88
2019-04-18T05:48:44.223Z,382.50
2019-04-18T05:49:44.188Z,382.50
2019-04-18T05:50:45.835Z,388.13
2019-04-18T05:51:44.133Z,405.00
2019-04-18T05:52:44.053Z,433.13
2019-04-18T05:53:44.030Z,427.50
2019-04-18T05:54:47.290Z,405.00
2019-04-18T05:55:43.942Z,416.25
2019-04-18T05:56:43.907Z,461.25
2019-04-18T05:57:43.845Z,517.50
2019-04-18T05:58:43.830Z,652.50
2019-04-18T05:59:43.790Z,787.50
2019-04-18T06:00:43.750Z,742.50
2019-04-18T06:01:43.706Z,675.00
2019-04-18T06:02:43.664Z,601.88
2019-04-18T06:03:43.649Z,579.38
2019-04-18T06:04:43.583Z,517.50
2019-04-18T06:05:43.541Z,450.00
2019-04-18T06:06:45.375Z,511.88
2019-04-18T06:07:43.465Z,618.75
2019-04-18T06:08:43.440Z,613.13
2019-04-18T06:09:43.426Z,562.50
2019-04-18T06:10:43.487Z,523.13
2019-04-18T06:11:43.295Z,495.00
2019-04-18T06:12:43.273Z,466.88
2019-04-18T06:13:43.264Z,483.75
2019-04-18T06:14:43.222Z,489.38
2019-04-18T06:15:43.187Z,545.63
2019-04-18T06:16:43.764Z,613.13
2019-04-18T06:17:43.050Z,596.25
2019-04-18T06:18:43.454Z,528.75
2019-04-18T06:19:42.998Z,472.50
2019-04-18T06:20:43.005Z,472.50
2019-04-18T06:21:42.933Z,523.13
2019-04-18T06:22:42.902Z,523.13
2019-04-18T06:23:42.904Z,495.00
2019-04-18T06:24:42.852Z,511.88
2019-04-18T06:25:42.819Z,495.00
2019-04-18T06:26:42.727Z,517.50
2019-04-18T06:27:42.708Z,528.75
2019-04-18T06:28:42.676Z,523.13
2019-04-18T06:29:42.644Z,506.25
2019-04-18T06:30:42.592Z,517.50
2019-04-18T06:31:42.535Z,579.38
2019-04-18T06:32:42.517Z,540.00
2019-04-18T06:33:42.456Z,511.88
2019-04-18T06:34:42.449Z,506.25
2019-04-18T06:35:42.454Z,506.25
2019-04-18T06:36:42.381Z,528.75
2019-04-18T06:37:43.893Z,517.50
2019-04-18T06:38:42.290Z,545.63
2019-04-18T06:39:42.307Z,624.38
2019-04-18T06:40:42.269Z,703.13
2019-04-18T06:41:42.158Z,742.50
2019-04-18T06:42:42.121Z,725.63
2019-04-18T06:43:42.112Z,675.00
2019-04-18T06:44:42.096Z,562.50
2019-04-18T06:45:42.147Z,534.38
2019-04-18T06:46:41.985Z,534.38
2019-04-18T06:47:41.933Z,545.63
2019-04-18T06:48:41.901Z,545.63
2019-04-18T06:49:46.850Z,545.63
2019-04-18T06:50:42.782Z,607.50
2019-04-18T06:51:41.790Z,669.38
2019-04-18T06:52:42.280Z,708.75
2019-04-18T06:53:41.735Z,1108.13
2019-04-18T06:54:41.749Z,1636.88
2019-04-18T06:55:41.671Z,1845.00
2019-04-18T06:56:41.668Z,2030.63
2019-04-18T06:57:41.609Z,2115.00
2019-04-18T06:58:44.729Z,2053.13
2019-04-18T06:59:41.542Z,2030.63
2019-04-18T07:00:42.281Z,2075.63
2019-04-18T07:01:41.465Z,1794.38
2019-04-18T07:02:42.053Z,1833.75
2019-04-18T07:03:41.394Z,2081.25
2019-04-18T07:04:41.390Z,2098.13
2019-04-18T07:05:41.315Z,1968.75
2019-04-18T07:06:43.903Z,1839.38
2019-04-18T07:07:41.253Z,2182.50
2019-04-18T07:08:45.095Z,2266.88
2019-04-18T07:09:53.993Z,2036.25
2019-04-18T07:10:55.730Z,2075.63
2019-04-18T07:11:41.107Z,2193.75
2019-04-18T07:12:47.256Z,2216.25
2019-04-18T07:13:41.091Z,2047.50
2019-04-18T07:14:41.051Z,2154.38
2019-04-18T07:15:41.037Z,2221.88
2019-04-18T07:16:44.600Z,2486.25
2019-04-18T07:17:41.003Z,2784.38
2019-04-18T07:18:40.958Z,2390.63
2019-04-18T07:19:40.909Z,2160.00
2019-04-18T07:20:44.358Z,2199.38
2019-04-18T07:21:40.843Z,2531.25
2019-04-18T07:22:40.847Z,2649.38
2019-04-18T07:23:40.796Z,2233.13
2019-04-18T07:24:40.770Z,2081.25
2019-04-18T07:25:40.788Z,2373.75
2019-04-18T07:26:40.738Z,2373.75
2019-04-18T07:27:40.695Z,2210.63
2019-04-18T07:28:49.199Z,2334.38
2019-04-18T07:29:40.709Z,2446.88
2019-04-18T07:30:44.489Z,2643.75
2019-04-18T07:31:40.625Z,2216.25
2019-04-18T07:32:40.566Z,2148.75
2019-04-18T07:33:40.572Z,2390.63
2019-04-18T07:34:40.542Z,2300.63
2019-04-18T07:35:40.512Z,2317.50
2019-04-18T07:36:40.485Z,2739.38
2019-04-18T07:37:40.507Z,2497.50
2019-04-18T07:38:40.464Z,2283.75
2019-04-18T07:39:40.421Z,2441.25
2019-04-18T07:40:43.772Z,2311.88
2019-04-18T07:41:40.437Z,2520.00
2019-04-18T07:42:40.364Z,2716.88
2019-04-18T07:43:40.343Z,2666.25
2019-04-18T07:44:40.393Z,2818.13
2019-04-18T07:45:40.290Z,2576.25
2019-04-18T07:46:40.261Z,2441.25
2019-04-18T07:47:40.248Z,2604.38
2019-04-18T07:48:40.237Z,2660.63
2019-04-18T07:49:40.215Z,2975.63
2019-04-18T07:50:40.180Z,2880.00
2019-04-18T07:51:40.150Z,2638.13
2019-04-18T07:52:43.268Z,2486.25
2019-04-18T07:53:40.129Z,2452.50
2019-04-18T07:54:40.080Z,2542.50
2019-04-18T07:55:40.065Z,2953.13
2019-04-18T07:56:41.616Z,2806.88
2019-04-18T07:57:40.030Z,2531.25
2019-04-18T07:58:40.010Z,2778.75
2019-04-18T07:59:40.000Z,2638.13
2019-04-18T08:00:39.970Z,2688.75
2019-04-18T08:01:39.937Z,2896.88
2019-04-18T08:02:39.971Z,3144.38
2019-04-18T08:03:45.017Z,3211.88
2019-04-18T08:04:40.809Z,2632.50
2019-04-18T08:05:39.878Z,2666.25
2019-04-18T08:06:39.869Z,2638.13
2019-04-18T08:07:39.820Z,2716.88
2019-04-18T08:08:39.803Z,3048.75
2019-04-18T08:09:39.782Z,2885.63
2019-04-18T08:10:39.774Z,2677.50
2019-04-18T08:11:39.788Z,3206.25
2019-04-18T08:12:40.519Z,3526.88
2019-04-18T08:13:41.459Z,3138.75
2019-04-18T08:14:39.680Z,3105.00
2019-04-18T08:15:39.690Z,2986.88
2019-04-18T08:16:41.324Z,2812.50
2019-04-18T08:17:39.619Z,2469.38
2019-04-18T08:18:41.973Z,2739.38
2019-04-18T08:19:39.628Z,2970.00
2019-04-18T08:20:39.647Z,2823.75
2019-04-18T08:21:39.564Z,3037.50
2019-04-18T08:22:39.568Z,3369.38
2019-04-18T08:23:40.011Z,3082.50
2019-04-18T08:24:40.230Z,2340.00
2019-04-18T08:25:39.455Z,2480.63
2019-04-18T08:26:39.474Z,2919.38
2019-04-18T08:27:39.432Z,3279.38
2019-04-18T08:28:39.402Z,3121.88
2019-04-18T08:29:39.377Z,3172.50
2019-04-18T08:30:39.371Z,2790.00
2019-04-18T08:31:39.352Z,3026.25
2019-04-18T08:32:39.340Z,3251.25
2019-04-18T08:33:39.297Z,3150.00
2019-04-18T08:34:39.289Z,3538.13
2019-04-18T08:35:39.274Z,3144.38
2019-04-18T08:36:39.259Z,3256.88
2019-04-18T08:37:39.222Z,3453.75
2019-04-18T08:38:41.866Z,2953.13
2019-04-18T08:39:39.540Z,3476.25
2019-04-18T08:40:39.241Z,3330.00
2019-04-18T08:41:39.170Z,2722.50
2019-04-18T08:42:39.142Z,3037.50
2019-04-18T08:43:42.099Z,2328.75
2019-04-18T08:44:39.073Z,2553.75
2019-04-18T08:45:39.053Z,2941.88
2019-04-18T08:46:39.244Z,2851.88
2019-04-18T08:47:39.011Z,3571.88
2019-04-18T08:48:38.991Z,3318.75
2019-04-18T08:49:39.006Z,3048.75
2019-04-18T08:50:39.975Z,3076.88
2019-04-18T08:51:38.927Z,3555.00
2019-04-18T08:52:38.943Z,3549.38
2019-04-18T08:53:48.769Z,2975.63
2019-04-18T08:54:38.904Z,3313.13
2019-04-18T08:55:38.862Z,3858.75
2019-04-18T08:56:38.838Z,4072.50
2019-04-18T08:57:41.288Z,3526.88
2019-04-18T08:58:38.804Z,3813.75
2019-04-18T08:59:39.597Z,3909.38
2019-04-18T09:00:38.774Z,3380.63
2019-04-18T09:01:38.763Z,3144.38
2019-04-18T09:02:38.722Z,3268.13
2019-04-18T09:03:41.460Z,3870.00
2019-04-18T09:04:39.078Z,3915.00
2019-04-18T09:05:38.792Z,3206.25
2019-04-18T09:06:38.779Z,3729.38
2019-04-18T09:07:38.740Z,4201.88
2019-04-18T09:08:38.965Z,3718.13
2019-04-18T09:09:39.678Z,3380.63
2019-04-18T09:10:39.485Z,3369.38
2019-04-18T09:11:39.311Z,3515.63
2019-04-18T09:12:40.521Z,3622.50
2019-04-18T09:13:53.094Z,3684.38
2019-04-18T09:14:39.202Z,3476.25
2019-04-18T09:15:38.503Z,3785.63
2019-04-18T09:16:39.186Z,4314.38
2019-04-18T09:17:38.549Z,3982.50
2019-04-18T09:18:38.427Z,3774.38
2019-04-18T09:19:38.449Z,3661.88
2019-04-18T09:20:38.909Z,3290.63
2019-04-18T09:21:39.276Z,3746.25
2019-04-18T09:22:39.328Z,4162.50
2019-04-18T09:23:43.285Z,3847.50
2019-04-18T09:24:38.981Z,3723.75
2019-04-18T09:25:38.671Z,3577.50
2019-04-18T09:26:40.235Z,4196.25
2019-04-18T09:27:38.247Z,4156.88
2019-04-18T09:28:51.137Z,3898.13
2019-04-18T09:29:53.154Z,3172.50
2019-04-18T09:30:38.189Z,2480.63
2019-04-18T09:31:38.174Z,2424.38
2019-04-18T09:32:38.165Z,3256.88
2019-04-18T09:33:38.138Z,4258.13
2019-04-18T09:34:38.127Z,3931.88
2019-04-18T09:35:45.646Z,3853.13
2019-04-18T09:36:38.071Z,3723.75
2019-04-18T09:37:38.055Z,3706.88
2019-04-18T09:38:38.046Z,3701.25
2019-04-18T09:39:38.014Z,3605.63
2019-04-18T09:40:38.019Z,4213.13
2019-04-18T09:41:37.997Z,4393.13
2019-04-18T09:42:37.972Z,3875.63
2019-04-18T09:43:40.501Z,3796.88
2019-04-18T09:44:37.898Z,4460.63
2019-04-18T09:45:37.893Z,4308.75
2019-04-18T09:46:39.115Z,4050.00
2019-04-18T09:47:37.839Z,3785.63
2019-04-18T09:48:37.829Z,3723.75
2019-04-18T09:49:38.226Z,3673.13
2019-04-18T09:50:37.790Z,3583.13
2019-04-18T09:51:37.793Z,3526.88
2019-04-18T09:52:37.746Z,4263.75
2019-04-18T09:53:37.740Z,4145.63
2019-04-18T09:54:38.120Z,3768.75
2019-04-18T09:55:37.690Z,4010.63
2019-04-18T09:56:37.717Z,4291.88
2019-04-18T09:57:37.689Z,4072.50
2019-04-18T09:58:37.638Z,3931.88
2019-04-18T09:59:37.618Z,3498.75
2019-04-18T10:00:37.616Z,2604.38
2019-04-18T10:01:37.597Z,2925.00
2019-04-18T10:02:37.606Z,3504.38
2019-04-18T10:03:37.541Z,3774.38
2019-04-18T10:04:37.522Z,4168.13
2019-04-18T10:05:37.508Z,4471.88
2019-04-18T10:06:37.461Z,4123.13
2019-04-18T10:07:37.463Z,3976.88
2019-04-18T10:08:37.440Z,3971.25
2019-04-18T10:09:37.432Z,3920.63
2019-04-18T10:10:37.390Z,3706.88
2019-04-18T10:11:37.366Z,3706.88
2019-04-18T10:12:37.382Z,4083.75
2019-04-18T10:13:37.330Z,4230.00
2019-04-18T10:14:38.876Z,4336.88
2019-04-18T10:15:37.297Z,3808.13
2019-04-18T10:16:39.142Z,3442.50
2019-04-18T10:17:37.282Z,3673.13
2019-04-18T10:18:37.249Z,3712.50
2019-04-18T10:19:37.246Z,3746.25
2019-04-18T10:20:38.842Z,3740.63
2019-04-18T10:21:37.167Z,4156.88
2019-04-18T10:22:37.164Z,4775.63
2019-04-18T10:23:37.150Z,4055.63
2019-04-18T10:24:37.118Z,4033.13
2019-04-18T10:25:37.185Z,3735.00
2019-04-18T10:26:37.078Z,3262.50
2019-04-18T10:27:37.090Z,3701.25
2019-04-18T10:28:37.053Z,3588.75
2019-04-18T10:29:36.988Z,3538.13
2019-04-18T10:30:37.009Z,3858.75
2019-04-18T10:31:37.015Z,4151.25
2019-04-18T10:32:36.962Z,4061.25
2019-04-18T10:33:38.474Z,4016.25
2019-04-18T10:34:37.124Z,4331.25
2019-04-18T10:35:37.876Z,4455.00
2019-04-18T10:36:36.877Z,4651.88
2019-04-18T10:37:36.842Z,4629.38
2019-04-18T10:38:36.835Z,4393.13
2019-04-18T10:39:36.794Z,4095.00
2019-04-18T10:40:36.786Z,4078.13
2019-04-18T10:41:36.765Z,4618.13
2019-04-18T10:42:36.751Z,4511.25
2019-04-18T10:43:36.720Z,4241.25
2019-04-18T10:44:36.701Z,4190.63
2019-04-18T10:45:38.130Z,5130.00
2019-04-18T10:46:36.681Z,5056.88
2019-04-18T10:47:36.629Z,4421.25
2019-04-18T10:48:36.607Z,4685.63
2019-04-18T10:49:36.600Z,4657.50
2019-04-18T10:50:36.612Z,4314.38
2019-04-18T10:51:36.550Z,4545.00
2019-04-18T10:52:36.519Z,4393.13
2019-04-18T10:53:36.618Z,4584.38
2019-04-18T10:54:36.545Z,4280.63
2019-04-18T10:55:36.464Z,4539.38
2019-04-18T10:56:36.469Z,4578.75
2019-04-18T10:57:36.420Z,4066.88
2019-04-18T10:58:37.377Z,3915.00
2019-04-18T10:59:36.400Z,4387.50
2019-04-18T11:00:43.398Z,4663.13
2019-04-18T11:01:36.349Z,4055.63
2019-04-18T11:02:36.355Z,4117.50
2019-04-18T11:03:36.277Z,4089.38
2019-04-18T11:04:36.275Z,4055.63
2019-04-18T11:05:36.240Z,4275.00
2019-04-18T11:06:36.210Z,5186.25
2019-04-18T11:07:36.224Z,4978.13
2019-04-18T11:08:36.206Z,4606.88
2019-04-18T11:09:36.164Z,5068.13
2019-04-18T11:10:36.169Z,4916.25
2019-04-18T11:11:36.124Z,4651.88
2019-04-18T11:12:36.113Z,4623.75
2019-04-18T11:13:36.068Z,4770.00
2019-04-18T11:14:36.071Z,4466.25
2019-04-18T11:15:37.751Z,4336.88
2019-04-18T11:16:36.015Z,4691.25
2019-04-18T11:17:35.990Z,5000.63
2019-04-18T11:18:35.995Z,5366.25
2019-04-18T11:19:35.929Z,4921.88
2019-04-18T11:20:35.909Z,4336.88
2019-04-18T11:21:35.902Z,4786.88
2019-04-18T11:22:35.886Z,4623.75
2019-04-18T11:23:35.859Z,5101.88
2019-04-18T11:24:35.812Z,4978.13
2019-04-18T11:25:35.801Z,3982.50
2019-04-18T11:26:35.784Z,4820.63
2019-04-18T11:27:35.750Z,5636.25
2019-04-18T11:28:35.733Z,4927.50
2019-04-18T11:29:35.722Z,4983.75
2019-04-18T11:30:35.677Z,4955.63
2019-04-18T11:31:35.802Z,4882.50
2019-04-18T11:32:36.407Z,4848.75
2019-04-18T11:33:35.618Z,4888.13
2019-04-18T11:34:39.015Z,4522.50
2019-04-18T11:35:35.591Z,4663.13
2019-04-18T11:36:35.570Z,4995.00
2019-04-18T11:37:35.530Z,4893.75
2019-04-18T11:38:35.522Z,4882.50
2019-04-18T11:39:35.480Z,4809.38
2019-04-18T11:40:35.494Z,4235.63
2019-04-18T11:41:35.448Z,4685.63
2019-04-18T11:42:35.441Z,4438.13
2019-04-18T11:43:35.446Z,4466.25
2019-04-18T11:44:35.361Z,3948.75
2019-04-18T11:45:35.345Z,4747.50
2019-04-18T11:46:35.367Z,4702.50
2019-04-18T11:47:35.900Z,4010.63
2019-04-18T11:48:35.279Z,4066.88
2019-04-18T11:49:35.283Z,3875.63
2019-04-18T11:50:35.271Z,4190.63
2019-04-18T11:51:35.215Z,4561.88
2019-04-18T11:52:35.168Z,4871.25
2019-04-18T11:53:35.174Z,4123.13
2019-04-18T11:54:35.130Z,4336.88
2019-04-18T11:55:35.237Z,4106.25
2019-04-18T11:56:35.089Z,3864.38
2019-04-18T11:57:35.106Z,4393.13
2019-04-18T11:58:35.073Z,4291.88
2019-04-18T11:59:35.069Z,4291.88
2019-04-18T12:00:35.042Z,4156.88
2019-04-18T12:01:34.979Z,4494.38
2019-04-18T12:02:34.956Z,4426.88
2019-04-18T12:03:34.956Z,4286.25
2019-04-18T12:04:34.941Z,3965.63
2019-04-18T12:05:34.871Z,4134.38
2019-04-18T12:06:34.863Z,4190.63
2019-04-18T12:07:37.749Z,3870.00
2019-04-18T12:08:34.813Z,4196.25
2019-04-18T12:09:36.507Z,3633.75
2019-04-18T12:10:34.791Z,3690.00
2019-04-18T12:11:34.755Z,3999.38
2019-04-18T12:12:35.416Z,4173.75
2019-04-18T12:13:34.690Z,3785.63
2019-04-18T12:14:35.417Z,3526.88
2019-04-18T12:15:34.653Z,3808.13
2019-04-18T12:16:35.567Z,3830.63
2019-04-18T12:17:34.618Z,4044.38
2019-04-18T12:18:34.689Z,4342.50
2019-04-18T12:19:34.574Z,4078.13
2019-04-18T12:20:34.548Z,3836.25
2019-04-18T12:21:34.531Z,3768.75
2019-04-18T12:22:35.135Z,4066.88
2019-04-18T12:23:34.485Z,4545.00
2019-04-18T12:24:39.918Z,4494.38
2019-04-18T12:25:34.468Z,3920.63
2019-04-18T12:26:34.398Z,4050.00
2019-04-18T12:27:34.412Z,4426.88
2019-04-18T12:28:34.396Z,4370.63
2019-04-18T12:29:35.186Z,3960.00
2019-04-18T12:30:34.354Z,3498.75
2019-04-18T12:31:34.295Z,3633.75
2019-04-18T12:32:34.259Z,3841.88
2019-04-18T12:33:35.305Z,3661.88
2019-04-18T12:34:34.238Z,3560.63